sensor_id;sensor_type;location;lat;lon;timestamp;P1;durP1;ratioP1;P2;durP2;ratioP2
22201;SDS011;11266;51.522;6.302;2022-11-04T00:05:05;3.38;;;1.85;;
22201;SDS011;11266;51.522;6.302;2022-11-04T00:05:55;5.30;;;2.00;;
22201;SDS011;11266;51.522;6.302;2022-11-04T00:06:48;2.92;;;1.67;;
22201;SDS011;11266;51.522;6.302;2022-11-04T00:07:34;5.25;;;1.98;;
22201;SDS011;11266;51.522;6.302;2022-11-04T00:08:39;3.15;;;1.60;;
22201;SDS011;11266;51.522;6.302;2022-11-04T00:09:27;3.53;;;1.80;;
22201;SDS011;11266;51.522;6.302;2022-11-04T00:10:14;3.55;;;1.63;;
22201;SDS011;11266;51.522;6.302;2022-11-04T00:11:00;5.20;;;1.80;;
22201;SDS011;11266;51.522;6.302;2022-11-04T00:12:07;5.28;;;1.63;;
22201;SDS011;11266;51.522;6.302;2022-11-04T00:13:10;3.00;;;1.55;;
22201;SDS011;11266;51.522;6.302;2022-11-04T00:13:57;2.92;;;1.60;;
22201;SDS011;11266;51.522;6.302;2022-11-04T00:14:47;2.80;;;1.65;;
22201;SDS011;11266;51.522;6.302;2022-11-04T00:15:36;4.47;;;2.30;;
22201;SDS011;11266;51.522;6.302;2022-11-04T00:16:41;3.75;;;1.73;;
22201;SDS011;11266;51.522;6.302;2022-11-04T00:17:46;2.85;;;1.70;;
22201;SDS011;11266;51.522;6.302;2022-11-04T00:18:33;3.10;;;1.77;;
22201;SDS011;11266;51.522;6.302;2022-11-04T00:19:20;3.33;;;1.80;;
22201;SDS011;11266;51.522;6.302;2022-11-04T00:20:07;2.10;;;1.40;;
22201;SDS011;11266;51.522;6.302;2022-11-04T00:21:12;2.63;;;1.60;;
22201;SDS011;11266;51.522;6.302;2022-11-04T00:22:17;2.70;;;1.70;;
22201;SDS011;11266;51.522;6.302;2022-11-04T00:23:21;2.40;;;1.50;;
22201;SDS011;11266;51.522;6.302;2022-11-04T00:24:26;4.05;;;1.85;;
22201;SDS011;11266;51.522;6.302;2022-11-04T00:25:27;3.38;;;1.70;;
22201;SDS011;11266;51.522;6.302;2022-11-04T00:26:32;3.67;;;1.75;;
22201;SDS011;11266;51.522;6.302;2022-11-04T00:27:36;2.78;;;1.75;;
22201;SDS011;11266;51.522;6.302;2022-11-04T00:28:41;6.70;;;1.90;;
22201;SDS011;11266;51.522;6.302;2022-11-04T00:29:32;2.90;;;1.83;;
22201;SDS011;11266;51.522;6.302;2022-11-04T00:30:18;3.80;;;1.98;;
22201;SDS011;11266;51.522;6.302;2022-11-04T00:31:05;4.53;;;1.70;;
22201;SDS011;11266;51.522;6.302;2022-11-04T00:32:10;3.38;;;1.92;;
22201;SDS011;11266;51.522;6.302;2022-11-04T00:33:16;4.70;;;1.92;;
22201;SDS011;11266;51.522;6.302;2022-11-04T00:34:12;2.33;;;1.60;;
22201;SDS011;11266;51.522;6.302;2022-11-04T00:35:01;2.67;;;1.83;;
22201;SDS011;11266;51.522;6.302;2022-11-04T00:35:48;3.88;;;2.00;;
22201;SDS011;11266;51.522;6.302;2022-11-04T00:36:37;3.17;;;1.60;;
22201;SDS011;11266;51.522;6.302;2022-11-04T00:37:23;3.35;;;1.80;;
22201;SDS011;11266;51.522;6.302;2022-11-04T00:38:09;5.07;;;1.60;;
22201;SDS011;11266;51.522;6.302;2022-11-04T00:38:56;3.80;;;1.40;;
22201;SDS011;11266;51.522;6.302;2022-11-04T00:39:44;2.85;;;1.83;;
22201;SDS011;11266;51.522;6.302;2022-11-04T00:40:30;2.92;;;1.63;;
22201;SDS011;11266;51.522;6.302;2022-11-04T00:41:21;4.80;;;1.88;;
22201;SDS011;11266;51.522;6.302;2022-11-04T00:42:10;3.85;;;1.70;;
22201;SDS011;11266;51.522;6.302;2022-11-04T00:42:57;3.53;;;1.75;;
22201;SDS011;11266;51.522;6.302;2022-11-04T00:43:43;3.03;;;1.40;;
22201;SDS011;11266;51.522;6.302;2022-11-04T00:44:32;2.92;;;1.58;;
22201;SDS011;11266;51.522;6.302;2022-11-04T00:45:19;2.72;;;1.50;;
22201;SDS011;11266;51.522;6.302;2022-11-04T00:46:05;2.58;;;1.65;;
22201;SDS011;11266;51.522;6.302;2022-11-04T00:46:51;2.65;;;1.80;;
22201;SDS011;11266;51.522;6.302;2022-11-04T00:47:37;4.88;;;1.92;;
22201;SDS011;11266;51.522;6.302;2022-11-04T00:48:23;4.30;;;1.95;;
22201;SDS011;11266;51.522;6.302;2022-11-04T00:49:09;2.88;;;1.60;;
22201;SDS011;11266;51.522;6.302;2022-11-04T00:49:57;4.65;;;1.63;;
22201;SDS011;11266;51.522;6.302;2022-11-04T00:50:43;3.22;;;1.80;;
22201;SDS011;11266;51.522;6.302;2022-11-04T00:51:31;2.47;;;1.63;;
22201;SDS011;11266;51.522;6.302;2022-11-04T00:52:17;3.72;;;1.95;;
22201;SDS011;11266;51.522;6.302;2022-11-04T00:53:03;1.83;;;1.50;;
22201;SDS011;11266;51.522;6.302;2022-11-04T00:53:49;4.55;;;1.45;;
22201;SDS011;11266;51.522;6.302;2022-11-04T00:54:35;2.13;;;1.40;;
22201;SDS011;11266;51.522;6.302;2022-11-04T00:55:22;4.68;;;1.58;;
22201;SDS011;11266;51.522;6.302;2022-11-04T00:56:08;2.35;;;1.70;;
22201;SDS011;11266;51.522;6.302;2022-11-04T00:56:54;3.28;;;1.73;;
22201;SDS011;11266;51.522;6.302;2022-11-04T00:57:40;2.42;;;1.50;;
22201;SDS011;11266;51.522;6.302;2022-11-04T00:58:27;2.65;;;1.50;;
22201;SDS011;11266;51.522;6.302;2022-11-04T00:59:13;2.97;;;1.70;;
22201;SDS011;11266;51.522;6.302;2022-11-04T01:00:00;2.55;;;1.65;;
22201;SDS011;11266;51.522;6.302;2022-11-04T01:00:46;3.40;;;1.60;;
22201;SDS011;11266;51.522;6.302;2022-11-04T01:01:43;3.28;;;1.80;;
22201;SDS011;11266;51.522;6.302;2022-11-04T01:02:29;3.03;;;1.75;;
22201;SDS011;11266;51.522;6.302;2022-11-04T01:03:15;3.13;;;1.60;;
22201;SDS011;11266;51.522;6.302;2022-11-04T01:04:01;4.05;;;1.85;;
22201;SDS011;11266;51.522;6.302;2022-11-04T01:04:47;3.17;;;2.00;;
22201;SDS011;11266;51.522;6.302;2022-11-04T01:05:35;2.78;;;1.75;;
22201;SDS011;11266;51.522;6.302;2022-11-04T01:06:22;4.57;;;2.22;;
22201;SDS011;11266;51.522;6.302;2022-11-04T01:07:09;3.70;;;1.83;;
22201;SDS011;11266;51.522;6.302;2022-11-04T01:07:56;2.80;;;1.65;;
22201;SDS011;11266;51.522;6.302;2022-11-04T01:08:42;2.63;;;1.88;;
22201;SDS011;11266;51.522;6.302;2022-11-04T01:09:28;5.13;;;1.88;;
22201;SDS011;11266;51.522;6.302;2022-11-04T01:10:14;2.70;;;1.75;;
22201;SDS011;11266;51.522;6.302;2022-11-04T01:11:02;3.83;;;2.05;;
22201;SDS011;11266;51.522;6.302;2022-11-04T01:11:48;3.50;;;2.00;;
22201;SDS011;11266;51.522;6.302;2022-11-04T01:12:35;4.03;;;2.00;;
22201;SDS011;11266;51.522;6.302;2022-11-04T01:13:22;2.50;;;1.77;;
22201;SDS011;11266;51.522;6.302;2022-11-04T01:14:11;5.97;;;2.30;;
22201;SDS011;11266;51.522;6.302;2022-11-04T01:14:58;5.28;;;2.15;;
22201;SDS011;11266;51.522;6.302;2022-11-04T01:15:44;2.58;;;1.65;;
22201;SDS011;11266;51.522;6.302;2022-11-04T01:16:30;3.58;;;1.92;;
22201;SDS011;11266;51.522;6.302;2022-11-04T01:17:17;2.75;;;1.73;;
22201;SDS011;11266;51.522;6.302;2022-11-04T01:18:03;5.75;;;2.10;;
22201;SDS011;11266;51.522;6.302;2022-11-04T01:18:50;3.10;;;2.20;;
22201;SDS011;11266;51.522;6.302;2022-11-04T01:19:36;3.28;;;2.33;;
22201;SDS011;11266;51.522;6.302;2022-11-04T01:20:22;4.88;;;2.45;;
22201;SDS011;11266;51.522;6.302;2022-11-04T01:21:14;5.63;;;2.40;;
22201;SDS011;11266;51.522;6.302;2022-11-04T01:22:02;4.20;;;2.30;;
22201;SDS011;11266;51.522;6.302;2022-11-04T01:22:49;4.97;;;2.83;;
22201;SDS011;11266;51.522;6.302;2022-11-04T01:23:35;3.45;;;2.17;;
22201;SDS011;11266;51.522;6.302;2022-11-04T01:24:21;4.00;;;2.80;;
22201;SDS011;11266;51.522;6.302;2022-11-04T01:25:08;4.45;;;2.60;;
22201;SDS011;11266;51.522;6.302;2022-11-04T01:25:55;3.13;;;2.10;;
22201;SDS011;11266;51.522;6.302;2022-11-04T01:26:42;6.80;;;2.90;;
22201;SDS011;11266;51.522;6.302;2022-11-04T01:27:28;4.88;;;2.78;;
22201;SDS011;11266;51.522;6.302;2022-11-04T01:28:14;7.05;;;2.60;;
22201;SDS011;11266;51.522;6.302;2022-11-04T01:29:00;5.72;;;3.05;;
22201;SDS011;11266;51.522;6.302;2022-11-04T01:29:47;7.82;;;2.85;;
22201;SDS011;11266;51.522;6.302;2022-11-04T01:30:33;4.28;;;2.13;;
22201;SDS011;11266;51.522;6.302;2022-11-04T01:31:23;3.80;;;2.67;;
22201;SDS011;11266;51.522;6.302;2022-11-04T01:32:09;6.28;;;2.78;;
22201;SDS011;11266;51.522;6.302;2022-11-04T01:32:58;5.45;;;3.13;;
22201;SDS011;11266;51.522;6.302;2022-11-04T01:33:44;3.70;;;2.30;;
22201;SDS011;11266;51.522;6.302;2022-11-04T01:34:30;3.50;;;2.17;;
22201;SDS011;11266;51.522;6.302;2022-11-04T01:35:16;4.22;;;2.47;;
22201;SDS011;11266;51.522;6.302;2022-11-04T01:36:05;4.00;;;2.40;;
22201;SDS011;11266;51.522;6.302;2022-11-04T01:36:54;6.68;;;2.30;;
22201;SDS011;11266;51.522;6.302;2022-11-04T01:37:41;3.60;;;2.50;;
22201;SDS011;11266;51.522;6.302;2022-11-04T01:38:27;4.22;;;2.25;;
22201;SDS011;11266;51.522;6.302;2022-11-04T01:39:14;3.10;;;2.17;;
22201;SDS011;11266;51.522;6.302;2022-11-04T01:40:04;3.88;;;2.22;;
22201;SDS011;11266;51.522;6.302;2022-11-04T01:40:50;4.10;;;2.28;;
22201;SDS011;11266;51.522;6.302;2022-11-04T01:41:36;4.70;;;2.30;;
22201;SDS011;11266;51.522;6.302;2022-11-04T01:42:24;4.45;;;2.53;;
22201;SDS011;11266;51.522;6.302;2022-11-04T01:43:14;4.82;;;2.75;;
22201;SDS011;11266;51.522;6.302;2022-11-04T01:44:42;6.70;;;2.17;;
22201;SDS011;11266;51.522;6.302;2022-11-04T01:45:12;5.15;;;2.40;;
22201;SDS011;11266;51.522;6.302;2022-11-04T01:46:02;4.50;;;2.40;;
22201;SDS011;11266;51.522;6.302;2022-11-04T01:46:49;4.53;;;2.25;;
22201;SDS011;11266;51.522;6.302;2022-11-04T01:47:40;4.68;;;2.53;;
22201;SDS011;11266;51.522;6.302;2022-11-04T01:48:28;5.85;;;2.72;;
22201;SDS011;11266;51.522;6.302;2022-11-04T01:50:15;7.03;;;2.55;;
22201;SDS011;11266;51.522;6.302;2022-11-04T01:51:02;4.18;;;2.42;;
22201;SDS011;11266;51.522;6.302;2022-11-04T01:51:49;4.75;;;2.50;;
22201;SDS011;11266;51.522;6.302;2022-11-04T01:52:39;6.90;;;2.50;;
22201;SDS011;11266;51.522;6.302;2022-11-04T01:53:31;3.60;;;2.35;;
22201;SDS011;11266;51.522;6.302;2022-11-04T01:54:17;4.90;;;2.47;;
22201;SDS011;11266;51.522;6.302;2022-11-04T01:55:05;4.25;;;2.30;;
22201;SDS011;11266;51.522;6.302;2022-11-04T01:55:55;4.65;;;2.40;;
22201;SDS011;11266;51.522;6.302;2022-11-04T01:56:44;3.63;;;2.35;;
22201;SDS011;11266;51.522;6.302;2022-11-04T01:57:33;5.15;;;2.33;;
22201;SDS011;11266;51.522;6.302;2022-11-04T01:58:22;4.78;;;2.30;;
22201;SDS011;11266;51.522;6.302;2022-11-04T01:59:11;6.60;;;2.60;;
22201;SDS011;11266;51.522;6.302;2022-11-04T02:00:02;3.30;;;2.00;;
22201;SDS011;11266;51.522;6.302;2022-11-04T02:00:49;3.95;;;2.30;;
22201;SDS011;11266;51.522;6.302;2022-11-04T02:01:35;10.95;;;2.72;;
22201;SDS011;11266;51.522;6.302;2022-11-04T02:02:21;4.43;;;2.28;;
22201;SDS011;11266;51.522;6.302;2022-11-04T02:03:56;9.57;;;2.63;;
22201;SDS011;11266;51.522;6.302;2022-11-04T02:05:01;3.83;;;2.33;;
22201;SDS011;11266;51.522;6.302;2022-11-04T02:05:47;9.75;;;2.38;;
22201;SDS011;11266;51.522;6.302;2022-11-04T02:06:37;4.90;;;2.83;;
22201;SDS011;11266;51.522;6.302;2022-11-04T02:07:23;4.65;;;2.58;;
22201;SDS011;11266;51.522;6.302;2022-11-04T02:08:10;3.13;;;2.00;;
22201;SDS011;11266;51.522;6.302;2022-11-04T02:08:56;4.60;;;2.20;;
22201;SDS011;11266;51.522;6.302;2022-11-04T02:09:42;5.75;;;2.40;;
22201;SDS011;11266;51.522;6.302;2022-11-04T02:10:29;4.22;;;2.53;;
22201;SDS011;11266;51.522;6.302;2022-11-04T02:11:16;8.68;;;2.50;;
22201;SDS011;11266;51.522;6.302;2022-11-04T02:12:23;4.30;;;2.25;;
22201;SDS011;11266;51.522;6.302;2022-11-04T02:13:29;4.55;;;2.25;;
22201;SDS011;11266;51.522;6.302;2022-11-04T02:14:16;4.13;;;2.40;;
22201;SDS011;11266;51.522;6.302;2022-11-04T02:15:03;4.30;;;2.35;;
22201;SDS011;11266;51.522;6.302;2022-11-04T02:16:37;4.25;;;2.35;;
22201;SDS011;11266;51.522;6.302;2022-11-04T02:17:03;4.55;;;2.63;;
22201;SDS011;11266;51.522;6.302;2022-11-04T02:27:04;3.40;;;1.92;;
22201;SDS011;11266;51.522;6.302;2022-11-04T02:31:45;4.07;;;1.92;;
22201;SDS011;11266;51.522;6.302;2022-11-04T02:34:28;6.82;;;2.20;;
22201;SDS011;11266;51.522;6.302;2022-11-04T02:35:20;3.55;;;1.83;;
22201;SDS011;11266;51.522;6.302;2022-11-04T02:38:20;5.07;;;1.92;;
22201;SDS011;11266;51.522;6.302;2022-11-04T02:39:20;4.43;;;1.77;;
22201;SDS011;11266;51.522;6.302;2022-11-04T02:40:13;6.45;;;2.25;;
22201;SDS011;11266;51.522;6.302;2022-11-04T02:41:27;3.33;;;1.60;;
22201;SDS011;11266;51.522;6.302;2022-11-04T02:42:36;7.95;;;1.90;;
22201;SDS011;11266;51.522;6.302;2022-11-04T02:48:10;7.18;;;1.48;;
22201;SDS011;11266;51.522;6.302;2022-11-04T02:49:12;4.68;;;2.05;;
22201;SDS011;11266;51.522;6.302;2022-11-04T02:53:27;7.88;;;1.90;;
22201;SDS011;11266;51.522;6.302;2022-11-04T02:54:19;4.13;;;1.50;;
22201;SDS011;11266;51.522;6.302;2022-11-04T02:55:32;5.55;;;1.80;;
22201;SDS011;11266;51.522;6.302;2022-11-04T02:56:27;8.05;;;1.77;;
22201;SDS011;11266;51.522;6.302;2022-11-04T02:59:03;4.40;;;1.40;;
22201;SDS011;11266;51.522;6.302;2022-11-04T02:59:56;3.30;;;1.25;;
22201;SDS011;11266;51.522;6.302;2022-11-04T03:02:33;6.78;;;1.75;;
22201;SDS011;11266;51.522;6.302;2022-11-04T03:03:42;6.78;;;1.52;;
22201;SDS011;11266;51.522;6.302;2022-11-04T03:10:00;4.68;;;1.70;;
22201;SDS011;11266;51.522;6.302;2022-11-04T03:10:50;5.47;;;1.90;;
22201;SDS011;11266;51.522;6.302;2022-11-04T03:15:23;6.07;;;1.60;;
22201;SDS011;11266;51.522;6.302;2022-11-04T03:16:14;7.22;;;1.73;;
22201;SDS011;11266;51.522;6.302;2022-11-04T03:17:39;2.45;;;1.13;;
22201;SDS011;11266;51.522;6.302;2022-11-04T03:18:35;8.98;;;2.85;;
22201;SDS011;11266;51.522;6.302;2022-11-04T03:19:58;4.38;;;1.42;;
22201;SDS011;11266;51.522;6.302;2022-11-04T03:21:06;4.10;;;1.30;;
22201;SDS011;11266;51.522;6.302;2022-11-04T03:22:17;7.85;;;1.60;;
22201;SDS011;11266;51.522;6.302;2022-11-04T03:38:22;4.65;;;1.60;;
22201;SDS011;11266;51.522;6.302;2022-11-04T03:39:08;6.38;;;1.52;;
22201;SDS011;11266;51.522;6.302;2022-11-04T03:39:54;6.40;;;1.70;;
22201;SDS011;11266;51.522;6.302;2022-11-04T03:40:40;3.80;;;1.30;;
22201;SDS011;11266;51.522;6.302;2022-11-04T03:41:48;6.63;;;1.42;;
22201;SDS011;11266;51.522;6.302;2022-11-04T03:42:33;3.40;;;1.55;;
22201;SDS011;11266;51.522;6.302;2022-11-04T03:43:22;2.53;;;1.30;;
22201;SDS011;11266;51.522;6.302;2022-11-04T03:44:09;6.13;;;1.38;;
22201;SDS011;11266;51.522;6.302;2022-11-04T03:44:55;3.25;;;1.10;;
22201;SDS011;11266;51.522;6.302;2022-11-04T03:45:41;5.82;;;1.50;;
22201;SDS011;11266;51.522;6.302;2022-11-04T03:46:28;4.57;;;1.60;;
22201;SDS011;11266;51.522;6.302;2022-11-04T03:47:14;5.07;;;1.42;;
22201;SDS011;11266;51.522;6.302;2022-11-04T03:48:01;4.15;;;1.30;;
22201;SDS011;11266;51.522;6.302;2022-11-04T03:48:50;8.57;;;2.80;;
22201;SDS011;11266;51.522;6.302;2022-11-04T03:49:36;6.80;;;1.98;;
22201;SDS011;11266;51.522;6.302;2022-11-04T03:50:29;5.15;;;1.55;;
22201;SDS011;11266;51.522;6.302;2022-11-04T03:51:15;3.90;;;1.35;;
22201;SDS011;11266;51.522;6.302;2022-11-04T03:52:01;5.00;;;1.60;;
22201;SDS011;11266;51.522;6.302;2022-11-04T03:52:47;4.97;;;1.50;;
22201;SDS011;11266;51.522;6.302;2022-11-04T03:53:33;5.72;;;2.53;;
22201;SDS011;11266;51.522;6.302;2022-11-04T03:54:19;4.30;;;1.95;;
22201;SDS011;11266;51.522;6.302;2022-11-04T03:55:06;3.08;;;1.30;;
22201;SDS011;11266;51.522;6.302;2022-11-04T03:57:05;3.22;;;1.48;;
22201;SDS011;11266;51.522;6.302;2022-11-04T03:58:01;4.68;;;1.42;;
22201;SDS011;11266;51.522;6.302;2022-11-04T04:00:38;6.03;;;1.15;;
22201;SDS011;11266;51.522;6.302;2022-11-04T04:01:36;7.70;;;1.80;;
22201;SDS011;11266;51.522;6.302;2022-11-04T04:02:32;4.90;;;1.55;;
22201;SDS011;11266;51.522;6.302;2022-11-04T04:03:23;8.38;;;1.48;;
22201;SDS011;11266;51.522;6.302;2022-11-04T04:06:32;5.63;;;2.10;;
22201;SDS011;11266;51.522;6.302;2022-11-04T04:07:25;5.72;;;1.42;;
22201;SDS011;11266;51.522;6.302;2022-11-04T04:08:30;4.15;;;1.25;;
22201;SDS011;11266;51.522;6.302;2022-11-04T04:09:30;2.78;;;1.20;;
22201;SDS011;11266;51.522;6.302;2022-11-04T04:10:19;4.57;;;1.50;;
22201;SDS011;11266;51.522;6.302;2022-11-04T04:12:32;6.82;;;1.73;;
22201;SDS011;11266;51.522;6.302;2022-11-04T04:14:12;4.18;;;1.35;;
22201;SDS011;11266;51.522;6.302;2022-11-04T04:15:21;6.13;;;1.70;;
22201;SDS011;11266;51.522;6.302;2022-11-04T04:16:54;2.50;;;1.30;;
22201;SDS011;11266;51.522;6.302;2022-11-04T04:17:46;6.25;;;1.67;;
22201;SDS011;11266;51.522;6.302;2022-11-04T04:18:52;4.72;;;1.40;;
22201;SDS011;11266;51.522;6.302;2022-11-04T04:19:40;3.28;;;1.48;;
22201;SDS011;11266;51.522;6.302;2022-11-04T04:20:29;7.70;;;1.45;;
22201;SDS011;11266;51.522;6.302;2022-11-04T04:21:20;5.00;;;1.50;;
22201;SDS011;11266;51.522;6.302;2022-11-04T04:22:09;3.97;;;1.50;;
22201;SDS011;11266;51.522;6.302;2022-11-04T04:22:59;5.07;;;1.48;;
22201;SDS011;11266;51.522;6.302;2022-11-04T04:23:47;7.75;;;1.83;;
22201;SDS011;11266;51.522;6.302;2022-11-04T04:24:55;5.35;;;1.83;;
22201;SDS011;11266;51.522;6.302;2022-11-04T04:26:02;3.45;;;1.40;;
22201;SDS011;11266;51.522;6.302;2022-11-04T04:27:07;6.13;;;1.83;;
22201;SDS011;11266;51.522;6.302;2022-11-04T04:28:12;2.90;;;1.00;;
22201;SDS011;11266;51.522;6.302;2022-11-04T04:28:59;8.57;;;1.45;;
22201;SDS011;11266;51.522;6.302;2022-11-04T04:29:49;7.15;;;1.10;;
22201;SDS011;11266;51.522;6.302;2022-11-04T04:30:36;6.82;;;1.80;;
22201;SDS011;11266;51.522;6.302;2022-11-04T04:31:22;3.75;;;1.40;;
22201;SDS011;11266;51.522;6.302;2022-11-04T04:32:31;4.88;;;1.40;;
22201;SDS011;11266;51.522;6.302;2022-11-04T04:33:18;6.30;;;1.33;;
22201;SDS011;11266;51.522;6.302;2022-11-04T04:34:05;4.75;;;1.30;;
22201;SDS011;11266;51.522;6.302;2022-11-04T04:34:51;2.85;;;1.50;;
22201;SDS011;11266;51.522;6.302;2022-11-04T04:36:00;3.03;;;1.10;;
22201;SDS011;11266;51.522;6.302;2022-11-04T04:36:50;5.47;;;1.60;;
22201;SDS011;11266;51.522;6.302;2022-11-04T04:37:38;6.32;;;1.65;;
22201;SDS011;11266;51.522;6.302;2022-11-04T04:38:28;2.97;;;1.20;;
22201;SDS011;11266;51.522;6.302;2022-11-04T04:39:37;4.57;;;1.40;;
22201;SDS011;11266;51.522;6.302;2022-11-04T04:40:49;3.38;;;1.38;;
22201;SDS011;11266;51.522;6.302;2022-11-04T04:41:55;6.35;;;1.50;;
22201;SDS011;11266;51.522;6.302;2022-11-04T04:42:59;3.90;;;1.27;;
22201;SDS011;11266;51.522;6.302;2022-11-04T04:44:08;3.67;;;1.30;;
22201;SDS011;11266;51.522;6.302;2022-11-04T04:46:30;6.10;;;1.75;;
22201;SDS011;11266;51.522;6.302;2022-11-04T04:47:20;2.88;;;1.30;;
22201;SDS011;11266;51.522;6.302;2022-11-04T04:48:08;5.07;;;1.90;;
22201;SDS011;11266;51.522;6.302;2022-11-04T04:48:54;3.33;;;1.30;;
22201;SDS011;11266;51.522;6.302;2022-11-04T04:49:53;3.50;;;1.38;;
22201;SDS011;11266;51.522;6.302;2022-11-04T04:50:41;4.85;;;1.52;;
22201;SDS011;11266;51.522;6.302;2022-11-04T04:51:29;4.03;;;1.17;;
22201;SDS011;11266;51.522;6.302;2022-11-04T04:52:15;5.32;;;1.20;;
22201;SDS011;11266;51.522;6.302;2022-11-04T04:53:02;6.95;;;1.92;;
22201;SDS011;11266;51.522;6.302;2022-11-04T04:53:48;5.28;;;1.30;;
22201;SDS011;11266;51.522;6.302;2022-11-04T04:54:34;5.65;;;1.30;;
22201;SDS011;11266;51.522;6.302;2022-11-04T04:55:20;4.18;;;1.30;;
22201;SDS011;11266;51.522;6.302;2022-11-04T04:56:09;4.00;;;1.38;;
22201;SDS011;11266;51.522;6.302;2022-11-04T04:56:55;5.25;;;1.67;;
22201;SDS011;11266;51.522;6.302;2022-11-04T04:57:41;3.42;;;1.30;;
22201;SDS011;11266;51.522;6.302;2022-11-04T04:58:27;5.28;;;1.20;;
22201;SDS011;11266;51.522;6.302;2022-11-04T04:59:13;7.03;;;1.85;;
22201;SDS011;11266;51.522;6.302;2022-11-04T04:59:59;11.38;;;1.80;;
22201;SDS011;11266;51.522;6.302;2022-11-04T05:00:45;7.25;;;1.98;;
22201;SDS011;11266;51.522;6.302;2022-11-04T05:01:34;3.17;;;1.25;;
22201;SDS011;11266;51.522;6.302;2022-11-04T05:02:20;3.83;;;1.27;;
22201;SDS011;11266;51.522;6.302;2022-11-04T05:03:06;4.78;;;1.60;;
22201;SDS011;11266;51.522;6.302;2022-11-04T05:03:52;2.58;;;1.10;;
22201;SDS011;11266;51.522;6.302;2022-11-04T05:04:38;6.75;;;1.75;;
22201;SDS011;11266;51.522;6.302;2022-11-04T05:05:24;4.28;;;1.50;;
22201;SDS011;11266;51.522;6.302;2022-11-04T05:06:10;2.38;;;1.23;;
22201;SDS011;11266;51.522;6.302;2022-11-04T05:06:56;4.05;;;1.33;;
22201;SDS011;11266;51.522;6.302;2022-11-04T05:07:42;5.38;;;1.48;;
22201;SDS011;11266;51.522;6.302;2022-11-04T05:08:28;3.97;;;1.35;;
22201;SDS011;11266;51.522;6.302;2022-11-04T05:09:14;4.68;;;1.48;;
22201;SDS011;11266;51.522;6.302;2022-11-04T05:10:00;2.72;;;1.20;;
22201;SDS011;11266;51.522;6.302;2022-11-04T05:10:46;4.18;;;1.45;;
22201;SDS011;11266;51.522;6.302;2022-11-04T05:11:32;4.13;;;1.45;;
22201;SDS011;11266;51.522;6.302;2022-11-04T05:12:18;4.85;;;1.40;;
22201;SDS011;11266;51.522;6.302;2022-11-04T05:13:05;2.60;;;1.27;;
22201;SDS011;11266;51.522;6.302;2022-11-04T05:14:09;4.10;;;1.58;;
22201;SDS011;11266;51.522;6.302;2022-11-04T05:14:55;5.68;;;1.90;;
22201;SDS011;11266;51.522;6.302;2022-11-04T05:15:41;4.32;;;1.60;;
22201;SDS011;11266;51.522;6.302;2022-11-04T05:16:27;5.35;;;1.60;;
22201;SDS011;11266;51.522;6.302;2022-11-04T05:17:14;2.75;;;1.33;;
22201;SDS011;11266;51.522;6.302;2022-11-04T05:18:00;6.53;;;1.92;;
22201;SDS011;11266;51.522;6.302;2022-11-04T05:18:46;4.13;;;1.40;;
22201;SDS011;11266;51.522;6.302;2022-11-04T05:19:32;2.75;;;1.20;;
22201;SDS011;11266;51.522;6.302;2022-11-04T05:20:18;3.40;;;1.30;;
22201;SDS011;11266;51.522;6.302;2022-11-04T05:21:05;5.40;;;1.65;;
22201;SDS011;11266;51.522;6.302;2022-11-04T05:21:51;4.85;;;1.42;;
22201;SDS011;11266;51.522;6.302;2022-11-04T05:22:38;3.40;;;1.15;;
22201;SDS011;11266;51.522;6.302;2022-11-04T05:23:24;4.78;;;1.50;;
22201;SDS011;11266;51.522;6.302;2022-11-04T05:24:10;5.10;;;1.42;;
22201;SDS011;11266;51.522;6.302;2022-11-04T05:24:56;3.47;;;1.38;;
22201;SDS011;11266;51.522;6.302;2022-11-04T05:25:42;4.30;;;1.10;;
22201;SDS011;11266;51.522;6.302;2022-11-04T05:27:18;3.38;;;1.30;;
22201;SDS011;11266;51.522;6.302;2022-11-04T05:28:04;6.32;;;1.83;;
22201;SDS011;11266;51.522;6.302;2022-11-04T05:28:50;2.63;;;1.25;;
22201;SDS011;11266;51.522;6.302;2022-11-04T05:29:36;4.60;;;1.67;;
22201;SDS011;11266;51.522;6.302;2022-11-04T05:30:22;5.00;;;1.52;;
22201;SDS011;11266;51.522;6.302;2022-11-04T05:31:08;6.55;;;1.60;;
22201;SDS011;11266;51.522;6.302;2022-11-04T05:31:54;2.88;;;1.33;;
22201;SDS011;11266;51.522;6.302;2022-11-04T05:32:40;4.82;;;1.08;;
22201;SDS011;11266;51.522;6.302;2022-11-04T05:33:26;5.70;;;1.63;;
22201;SDS011;11266;51.522;6.302;2022-11-04T05:34:12;5.20;;;1.65;;
22201;SDS011;11266;51.522;6.302;2022-11-04T05:34:58;4.00;;;1.40;;
22201;SDS011;11266;51.522;6.302;2022-11-04T05:35:44;2.47;;;1.20;;
22201;SDS011;11266;51.522;6.302;2022-11-04T05:36:30;3.55;;;1.08;;
22201;SDS011;11266;51.522;6.302;2022-11-04T05:37:17;1.95;;;1.20;;
22201;SDS011;11266;51.522;6.302;2022-11-04T05:38:03;5.78;;;1.70;;
22201;SDS011;11266;51.522;6.302;2022-11-04T05:38:50;5.45;;;1.70;;
22201;SDS011;11266;51.522;6.302;2022-11-04T05:39:36;3.17;;;1.27;;
22201;SDS011;11266;51.522;6.302;2022-11-04T05:40:22;4.45;;;1.42;;
22201;SDS011;11266;51.522;6.302;2022-11-04T05:41:09;4.28;;;1.40;;
22201;SDS011;11266;51.522;6.302;2022-11-04T05:41:58;4.93;;;1.58;;
22201;SDS011;11266;51.522;6.302;2022-11-04T05:42:44;4.70;;;1.58;;
22201;SDS011;11266;51.522;6.302;2022-11-04T05:43:31;4.93;;;1.40;;
22201;SDS011;11266;51.522;6.302;2022-11-04T05:44:17;4.03;;;1.30;;
22201;SDS011;11266;51.522;6.302;2022-11-04T05:45:03;4.70;;;1.50;;
22201;SDS011;11266;51.522;6.302;2022-11-04T05:45:49;3.83;;;1.33;;
22201;SDS011;11266;51.522;6.302;2022-11-04T05:46:38;7.18;;;1.98;;
22201;SDS011;11266;51.522;6.302;2022-11-04T05:47:24;5.28;;;1.95;;
22201;SDS011;11266;51.522;6.302;2022-11-04T05:48:10;4.80;;;1.50;;
22201;SDS011;11266;51.522;6.302;2022-11-04T05:48:56;2.92;;;1.40;;
22201;SDS011;11266;51.522;6.302;2022-11-04T05:49:42;2.40;;;1.27;;
22201;SDS011;11266;51.522;6.302;2022-11-04T05:50:28;5.05;;;1.88;;
22201;SDS011;11266;51.522;6.302;2022-11-04T05:51:16;8.10;;;1.80;;
22201;SDS011;11266;51.522;6.302;2022-11-04T05:52:02;3.22;;;1.40;;
22201;SDS011;11266;51.522;6.302;2022-11-04T05:52:48;4.88;;;1.60;;
22201;SDS011;11266;51.522;6.302;2022-11-04T05:53:34;3.50;;;1.60;;
22201;SDS011;11266;51.522;6.302;2022-11-04T05:54:20;5.88;;;1.40;;
22201;SDS011;11266;51.522;6.302;2022-11-04T05:55:06;3.67;;;1.50;;
22201;SDS011;11266;51.522;6.302;2022-11-04T05:55:52;2.85;;;1.27;;
22201;SDS011;11266;51.522;6.302;2022-11-04T05:56:40;3.83;;;1.33;;
22201;SDS011;11266;51.522;6.302;2022-11-04T05:57:26;4.82;;;1.58;;
22201;SDS011;11266;51.522;6.302;2022-11-04T05:58:15;3.75;;;1.30;;
22201;SDS011;11266;51.522;6.302;2022-11-04T05:59:01;6.07;;;1.50;;
22201;SDS011;11266;51.522;6.302;2022-11-04T05:59:47;5.95;;;1.75;;
22201;SDS011;11266;51.522;6.302;2022-11-04T06:00:33;4.30;;;1.40;;
22201;SDS011;11266;51.522;6.302;2022-11-04T06:01:33;4.47;;;1.38;;
22201;SDS011;11266;51.522;6.302;2022-11-04T06:02:19;7.57;;;2.10;;
22201;SDS011;11266;51.522;6.302;2022-11-04T06:03:05;4.63;;;1.20;;
22201;SDS011;11266;51.522;6.302;2022-11-04T06:03:52;4.13;;;1.40;;
22201;SDS011;11266;51.522;6.302;2022-11-04T06:04:38;8.20;;;1.95;;
22201;SDS011;11266;51.522;6.302;2022-11-04T06:05:25;4.53;;;1.63;;
22201;SDS011;11266;51.522;6.302;2022-11-04T06:06:11;3.40;;;1.40;;
22201;SDS011;11266;51.522;6.302;2022-11-04T06:06:57;3.58;;;1.52;;
22201;SDS011;11266;51.522;6.302;2022-11-04T06:07:43;3.50;;;1.45;;
22201;SDS011;11266;51.522;6.302;2022-11-04T06:08:29;4.70;;;1.55;;
22201;SDS011;11266;51.522;6.302;2022-11-04T06:09:15;5.72;;;1.50;;
22201;SDS011;11266;51.522;6.302;2022-11-04T06:10:02;5.10;;;1.45;;
22201;SDS011;11266;51.522;6.302;2022-11-04T06:10:48;5.22;;;1.65;;
22201;SDS011;11266;51.522;6.302;2022-11-04T06:11:35;5.18;;;1.70;;
22201;SDS011;11266;51.522;6.302;2022-11-04T06:12:21;3.35;;;1.52;;